sensor_id;sensor_type;location;lat;lon;timestamp;P1;durP1;ratioP1;P2;durP2;ratioP2
5458;SDS011;2752;49.992;8.422;2022-10-16T00:00:32;6.33;;;4.10;;
5458;SDS011;2752;49.992;8.422;2022-10-16T00:02:59;10.20;;;4.30;;
5458;SDS011;2752;49.992;8.422;2022-10-16T00:05:26;8.43;;;3.97;;
5458;SDS011;2752;49.992;8.422;2022-10-16T00:07:54;7.10;;;4.37;;
5458;SDS011;2752;49.992;8.422;2022-10-16T00:10:22;6.53;;;3.90;;
5458;SDS011;2752;49.992;8.422;2022-10-16T00:12:50;14.40;;;3.63;;
5458;SDS011;2752;49.992;8.422;2022-10-16T00:15:17;9.47;;;4.17;;
5458;SDS011;2752;49.992;8.422;2022-10-16T00:17:45;8.93;;;3.83;;
5458;SDS011;2752;49.992;8.422;2022-10-16T00:20:12;7.40;;;3.53;;
5458;SDS011;2752;49.992;8.422;2022-10-16T00:22:40;10.20;;;4.10;;
5458;SDS011;2752;49.992;8.422;2022-10-16T00:25:07;9.10;;;4.27;;
5458;SDS011;2752;49.992;8.422;2022-10-16T00:27:36;6.40;;;4.17;;
5458;SDS011;2752;49.992;8.422;2022-10-16T00:30:04;9.40;;;4.57;;
5458;SDS011;2752;49.992;8.422;2022-10-16T00:32:33;8.77;;;3.93;;
5458;SDS011;2752;49.992;8.422;2022-10-16T00:35:00;7.40;;;3.60;;
5458;SDS011;2752;49.992;8.422;2022-10-16T00:37:29;8.00;;;4.13;;
5458;SDS011;2752;49.992;8.422;2022-10-16T00:39:56;8.47;;;4.27;;
5458;SDS011;2752;49.992;8.422;2022-10-16T00:42:23;14.90;;;3.83;;
5458;SDS011;2752;49.992;8.422;2022-10-16T00:44:53;6.10;;;3.30;;
5458;SDS011;2752;49.992;8.422;2022-10-16T00:47:22;9.10;;;4.03;;
5458;SDS011;2752;49.992;8.422;2022-10-16T00:49:53;3.80;;;3.07;;
5458;SDS011;2752;49.992;8.422;2022-10-16T00:52:22;5.87;;;3.30;;
5458;SDS011;2752;49.992;8.422;2022-10-16T00:54:49;9.50;;;3.47;;
5458;SDS011;2752;49.992;8.422;2022-10-16T00:57:17;9.13;;;3.50;;
5458;SDS011;2752;49.992;8.422;2022-10-16T00:59:44;8.00;;;3.00;;
5458;SDS011;2752;49.992;8.422;2022-10-16T01:02:14;9.37;;;3.50;;
5458;SDS011;2752;49.992;8.422;2022-10-16T01:04:42;6.63;;;3.27;;
5458;SDS011;2752;49.992;8.422;2022-10-16T01:07:12;5.70;;;2.63;;
5458;SDS011;2752;49.992;8.422;2022-10-16T01:09:43;5.63;;;3.63;;
5458;SDS011;2752;49.992;8.422;2022-10-16T01:12:14;4.07;;;3.07;;
5458;SDS011;2752;49.992;8.422;2022-10-16T01:14:45;8.50;;;2.70;;
5458;SDS011;2752;49.992;8.422;2022-10-16T01:17:15;6.33;;;2.80;;
5458;SDS011;2752;49.992;8.422;2022-10-16T01:19:50;6.53;;;2.70;;
5458;SDS011;2752;49.992;8.422;2022-10-16T01:22:19;3.20;;;2.10;;
5458;SDS011;2752;49.992;8.422;2022-10-16T01:24:48;6.80;;;2.70;;
5458;SDS011;2752;49.992;8.422;2022-10-16T01:27:18;5.73;;;2.67;;
5458;SDS011;2752;49.992;8.422;2022-10-16T01:29:49;4.77;;;2.30;;
5458;SDS011;2752;49.992;8.422;2022-10-16T01:32:17;13.40;;;3.00;;
5458;SDS011;2752;49.992;8.422;2022-10-16T01:34:48;8.97;;;2.50;;
5458;SDS011;2752;49.992;8.422;2022-10-16T01:37:20;5.53;;;2.83;;
5458;SDS011;2752;49.992;8.422;2022-10-16T01:39:48;8.07;;;2.57;;
5458;SDS011;2752;49.992;8.422;2022-10-16T01:42:20;4.00;;;2.10;;
5458;SDS011;2752;49.992;8.422;2022-10-16T01:44:48;5.43;;;2.10;;
5458;SDS011;2752;49.992;8.422;2022-10-16T01:47:16;2.97;;;2.13;;
5458;SDS011;2752;49.992;8.422;2022-10-16T01:49:44;6.37;;;2.60;;
5458;SDS011;2752;49.992;8.422;2022-10-16T01:52:12;3.30;;;2.03;;
5458;SDS011;2752;49.992;8.422;2022-10-16T01:54:42;6.03;;;2.07;;
5458;SDS011;2752;49.992;8.422;2022-10-16T01:57:10;3.77;;;2.03;;
5458;SDS011;2752;49.992;8.422;2022-10-16T01:59:42;3.23;;;1.73;;
5458;SDS011;2752;49.992;8.422;2022-10-16T02:02:10;3.30;;;2.27;;
5458;SDS011;2752;49.992;8.422;2022-10-16T02:04:40;4.80;;;2.00;;
5458;SDS011;2752;49.992;8.422;2022-10-16T02:07:09;2.90;;;1.73;;
5458;SDS011;2752;49.992;8.422;2022-10-16T02:09:37;2.63;;;2.00;;
5458;SDS011;2752;49.992;8.422;2022-10-16T02:12:06;5.90;;;2.90;;
5458;SDS011;2752;49.992;8.422;2022-10-16T02:14:35;7.40;;;2.57;;
5458;SDS011;2752;49.992;8.422;2022-10-16T02:17:10;6.97;;;2.30;;
5458;SDS011;2752;49.992;8.422;2022-10-16T02:19:38;5.87;;;2.17;;
5458;SDS011;2752;49.992;8.422;2022-10-16T02:22:05;6.50;;;2.33;;
5458;SDS011;2752;49.992;8.422;2022-10-16T02:24:35;11.47;;;2.40;;
5458;SDS011;2752;49.992;8.422;2022-10-16T02:27:05;2.87;;;2.20;;
5458;SDS011;2752;49.992;8.422;2022-10-16T02:29:34;4.77;;;1.87;;
5458;SDS011;2752;49.992;8.422;2022-10-16T02:32:04;3.57;;;2.37;;
5458;SDS011;2752;49.992;8.422;2022-10-16T02:34:34;2.97;;;1.80;;
5458;SDS011;2752;49.992;8.422;2022-10-16T02:37:03;3.33;;;1.90;;
5458;SDS011;2752;49.992;8.422;2022-10-16T02:39:31;6.17;;;1.90;;
5458;SDS011;2752;49.992;8.422;2022-10-16T02:41:59;7.30;;;2.47;;
5458;SDS011;2752;49.992;8.422;2022-10-16T02:44:26;4.40;;;2.03;;
5458;SDS011;2752;49.992;8.422;2022-10-16T02:46:55;3.93;;;1.90;;
5458;SDS011;2752;49.992;8.422;2022-10-16T02:49:22;6.73;;;2.13;;
5458;SDS011;2752;49.992;8.422;2022-10-16T02:51:51;2.10;;;1.73;;
5458;SDS011;2752;49.992;8.422;2022-10-16T02:54:18;6.50;;;2.33;;
5458;SDS011;2752;49.992;8.422;2022-10-16T02:56:47;5.70;;;1.90;;
5458;SDS011;2752;49.992;8.422;2022-10-16T02:59:16;7.80;;;2.13;;
5458;SDS011;2752;49.992;8.422;2022-10-16T03:01:43;4.83;;;2.33;;
5458;SDS011;2752;49.992;8.422;2022-10-16T03:04:10;3.63;;;2.20;;
5458;SDS011;2752;49.992;8.422;2022-10-16T03:06:37;3.30;;;2.20;;
5458;SDS011;2752;49.992;8.422;2022-10-16T03:09:08;2.80;;;2.10;;
5458;SDS011;2752;49.992;8.422;2022-10-16T03:11:35;3.97;;;2.13;;
5458;SDS011;2752;49.992;8.422;2022-10-16T03:14:02;2.50;;;2.07;;
5458;SDS011;2752;49.992;8.422;2022-10-16T03:16:30;2.80;;;1.90;;
5458;SDS011;2752;49.992;8.422;2022-10-16T03:18:57;7.93;;;2.00;;
5458;SDS011;2752;49.992;8.422;2022-10-16T03:21:24;6.13;;;2.40;;
5458;SDS011;2752;49.992;8.422;2022-10-16T03:23:51;5.20;;;1.87;;
5458;SDS011;2752;49.992;8.422;2022-10-16T03:26:20;5.70;;;1.80;;
5458;SDS011;2752;49.992;8.422;2022-10-16T03:28:47;1.93;;;1.73;;
5458;SDS011;2752;49.992;8.422;2022-10-16T03:31:14;3.77;;;1.60;;
5458;SDS011;2752;49.992;8.422;2022-10-16T03:33:42;3.70;;;2.10;;
5458;SDS011;2752;49.992;8.422;2022-10-16T03:36:10;3.60;;;2.07;;
5458;SDS011;2752;49.992;8.422;2022-10-16T03:38:38;3.00;;;2.00;;
5458;SDS011;2752;49.992;8.422;2022-10-16T03:41:05;2.90;;;1.63;;
5458;SDS011;2752;49.992;8.422;2022-10-16T03:43:34;2.10;;;1.40;;
5458;SDS011;2752;49.992;8.422;2022-10-16T03:46:02;3.30;;;1.70;;
5458;SDS011;2752;49.992;8.422;2022-10-16T03:48:29;5.60;;;1.70;;
5458;SDS011;2752;49.992;8.422;2022-10-16T03:50:57;4.10;;;1.87;;
5458;SDS011;2752;49.992;8.422;2022-10-16T03:53:24;2.40;;;1.63;;
5458;SDS011;2752;49.992;8.422;2022-10-16T03:55:52;1.80;;;1.70;;
5458;SDS011;2752;49.992;8.422;2022-10-16T03:58:19;2.87;;;1.27;;
5458;SDS011;2752;49.992;8.422;2022-10-16T04:00:48;4.27;;;1.83;;
5458;SDS011;2752;49.992;8.422;2022-10-16T04:03:15;2.37;;;1.33;;
5458;SDS011;2752;49.992;8.422;2022-10-16T04:05:44;5.23;;;1.73;;
5458;SDS011;2752;49.992;8.422;2022-10-16T04:08:11;2.30;;;1.90;;
5458;SDS011;2752;49.992;8.422;2022-10-16T04:10:38;3.87;;;1.70;;
5458;SDS011;2752;49.992;8.422;2022-10-16T04:13:05;3.43;;;1.43;;
5458;SDS011;2752;49.992;8.422;2022-10-16T04:15:33;3.57;;;1.63;;
5458;SDS011;2752;49.992;8.422;2022-10-16T04:18:03;2.00;;;1.80;;
5458;SDS011;2752;49.992;8.422;2022-10-16T04:20:30;1.50;;;1.40;;
5458;SDS011;2752;49.992;8.422;2022-10-16T04:22:57;5.50;;;2.23;;
5458;SDS011;2752;49.992;8.422;2022-10-16T04:25:26;2.00;;;1.50;;
5458;SDS011;2752;49.992;8.422;2022-10-16T04:27:53;1.73;;;1.43;;
5458;SDS011;2752;49.992;8.422;2022-10-16T04:30:22;3.43;;;1.20;;
5458;SDS011;2752;49.992;8.422;2022-10-16T04:32:49;4.00;;;1.87;;
5458;SDS011;2752;49.992;8.422;2022-10-16T04:35:18;2.83;;;1.73;;
5458;SDS011;2752;49.992;8.422;2022-10-16T04:37:46;1.93;;;1.60;;
5458;SDS011;2752;49.992;8.422;2022-10-16T04:40:14;5.63;;;1.30;;
5458;SDS011;2752;49.992;8.422;2022-10-16T04:42:41;1.47;;;1.27;;
5458;SDS011;2752;49.992;8.422;2022-10-16T04:45:08;2.13;;;1.07;;
5458;SDS011;2752;49.992;8.422;2022-10-16T04:47:36;5.13;;;1.50;;
5458;SDS011;2752;49.992;8.422;2022-10-16T04:50:03;2.60;;;1.00;;
5458;SDS011;2752;49.992;8.422;2022-10-16T04:52:32;4.37;;;0.97;;
5458;SDS011;2752;49.992;8.422;2022-10-16T04:57:27;5.37;;;1.40;;
5458;SDS011;2752;49.992;8.422;2022-10-16T04:59:55;9.70;;;1.43;;
5458;SDS011;2752;49.992;8.422;2022-10-16T05:02:23;10.37;;;1.20;;
5458;SDS011;2752;49.992;8.422;2022-10-16T05:04:51;6.20;;;1.70;;
5458;SDS011;2752;49.992;8.422;2022-10-16T05:07:18;2.53;;;1.70;;
5458;SDS011;2752;49.992;8.422;2022-10-16T05:09:46;4.30;;;1.47;;
5458;SDS011;2752;49.992;8.422;2022-10-16T05:12:13;3.07;;;1.77;;
5458;SDS011;2752;49.992;8.422;2022-10-16T05:14:40;5.07;;;1.70;;
5458;SDS011;2752;49.992;8.422;2022-10-16T05:17:08;2.03;;;1.63;;
5458;SDS011;2752;49.992;8.422;2022-10-16T05:19:35;6.13;;;1.63;;
5458;SDS011;2752;49.992;8.422;2022-10-16T05:22:02;1.43;;;1.27;;
5458;SDS011;2752;49.992;8.422;2022-10-16T05:24:30;3.00;;;1.37;;
5458;SDS011;2752;49.992;8.422;2022-10-16T05:26:58;5.60;;;1.40;;
5458;SDS011;2752;49.992;8.422;2022-10-16T05:29:26;1.53;;;1.30;;
5458;SDS011;2752;49.992;8.422;2022-10-16T05:31:53;2.70;;;1.47;;
5458;SDS011;2752;49.992;8.422;2022-10-16T05:34:20;2.47;;;1.50;;
5458;SDS011;2752;49.992;8.422;2022-10-16T05:36:49;8.90;;;2.23;;
5458;SDS011;2752;49.992;8.422;2022-10-16T05:39:16;1.30;;;1.07;;
5458;SDS011;2752;49.992;8.422;2022-10-16T05:41:45;4.77;;;1.40;;
5458;SDS011;2752;49.992;8.422;2022-10-16T05:44:13;5.37;;;1.83;;
5458;SDS011;2752;49.992;8.422;2022-10-16T05:46:41;6.00;;;1.60;;
5458;SDS011;2752;49.992;8.422;2022-10-16T05:49:08;5.03;;;1.80;;
5458;SDS011;2752;49.992;8.422;2022-10-16T05:51:35;2.60;;;1.80;;
5458;SDS011;2752;49.992;8.422;2022-10-16T05:54:02;7.43;;;2.10;;
5458;SDS011;2752;49.992;8.422;2022-10-16T05:56:29;5.30;;;1.73;;
5458;SDS011;2752;49.992;8.422;2022-10-16T05:58:56;3.47;;;2.03;;
5458;SDS011;2752;49.992;8.422;2022-10-16T06:01:26;3.70;;;1.70;;
5458;SDS011;2752;49.992;8.422;2022-10-16T06:03:54;3.50;;;2.10;;
5458;SDS011;2752;49.992;8.422;2022-10-16T06:06:22;2.83;;;1.23;;
5458;SDS011;2752;49.992;8.422;2022-10-16T06:08:51;5.53;;;1.63;;
5458;SDS011;2752;49.992;8.422;2022-10-16T06:11:19;4.33;;;1.50;;
5458;SDS011;2752;49.992;8.422;2022-10-16T06:13:48;2.43;;;1.77;;
5458;SDS011;2752;49.992;8.422;2022-10-16T06:16:18;2.93;;;1.60;;
5458;SDS011;2752;49.992;8.422;2022-10-16T06:18:46;2.20;;;1.40;;
5458;SDS011;2752;49.992;8.422;2022-10-16T06:21:14;2.17;;;1.37;;
5458;SDS011;2752;49.992;8.422;2022-10-16T06:23:43;0.93;;;0.90;;
5458;SDS011;2752;49.992;8.422;2022-10-16T06:26:12;9.63;;;1.70;;
5458;SDS011;2752;49.992;8.422;2022-10-16T06:28:39;3.20;;;1.20;;
5458;SDS011;2752;49.992;8.422;2022-10-16T06:31:06;2.20;;;1.40;;
5458;SDS011;2752;49.992;8.422;2022-10-16T06:33:34;3.23;;;1.80;;
5458;SDS011;2752;49.992;8.422;2022-10-16T06:36:03;3.03;;;1.60;;
5458;SDS011;2752;49.992;8.422;2022-10-16T06:38:30;2.30;;;1.93;;
5458;SDS011;2752;49.992;8.422;2022-10-16T06:40:57;4.13;;;2.20;;
5458;SDS011;2752;49.992;8.422;2022-10-16T06:43:24;5.00;;;1.77;;
5458;SDS011;2752;49.992;8.422;2022-10-16T06:45:52;2.30;;;1.70;;
5458;SDS011;2752;49.992;8.422;2022-10-16T06:48:19;3.10;;;1.60;;
5458;SDS011;2752;49.992;8.422;2022-10-16T06:50:54;4.40;;;2.07;;
5458;SDS011;2752;49.992;8.422;2022-10-16T06:53:23;4.30;;;2.17;;
5458;SDS011;2752;49.992;8.422;2022-10-16T06:55:50;10.73;;;1.60;;
5458;SDS011;2752;49.992;8.422;2022-10-16T06:58:17;4.10;;;1.93;;
5458;SDS011;2752;49.992;8.422;2022-10-16T07:00:44;3.50;;;2.00;;
5458;SDS011;2752;49.992;8.422;2022-10-16T07:03:11;1.63;;;1.53;;
5458;SDS011;2752;49.992;8.422;2022-10-16T07:05:38;13.17;;;2.43;;
5458;SDS011;2752;49.992;8.422;2022-10-16T07:08:05;3.57;;;2.30;;
5458;SDS011;2752;49.992;8.422;2022-10-16T07:10:34;4.53;;;2.13;;
5458;SDS011;2752;49.992;8.422;2022-10-16T07:13:01;3.33;;;2.17;;
5458;SDS011;2752;49.992;8.422;2022-10-16T07:15:28;4.97;;;2.50;;
5458;SDS011;2752;49.992;8.422;2022-10-16T07:17:55;6.73;;;2.40;;
5458;SDS011;2752;49.992;8.422;2022-10-16T07:20:22;8.30;;;2.47;;
5458;SDS011;2752;49.992;8.422;2022-10-16T07:22:49;6.67;;;3.57;;
5458;SDS011;2752;49.992;8.422;2022-10-16T07:25:16;4.27;;;2.70;;
5458;SDS011;2752;49.992;8.422;2022-10-16T07:27:44;3.60;;;2.33;;
5458;SDS011;2752;49.992;8.422;2022-10-16T07:30:11;5.93;;;3.00;;
5458;SDS011;2752;49.992;8.422;2022-10-16T07:32:39;3.83;;;2.10;;
5458;SDS011;2752;49.992;8.422;2022-10-16T07:35:06;2.63;;;2.40;;
5458;SDS011;2752;49.992;8.422;2022-10-16T07:37:33;4.07;;;2.93;;
5458;SDS011;2752;49.992;8.422;2022-10-16T07:40:00;6.60;;;2.60;;
5458;SDS011;2752;49.992;8.422;2022-10-16T07:42:27;6.00;;;3.30;;
5458;SDS011;2752;49.992;8.422;2022-10-16T07:44:55;4.10;;;2.97;;
5458;SDS011;2752;49.992;8.422;2022-10-16T07:47:22;5.00;;;2.77;;
5458;SDS011;2752;49.992;8.422;2022-10-16T07:49:49;4.40;;;3.03;;
5458;SDS011;2752;49.992;8.422;2022-10-16T07:52:16;7.20;;;3.53;;
5458;SDS011;2752;49.992;8.422;2022-10-16T07:54:43;3.23;;;2.80;;
5458;SDS011;2752;49.992;8.422;2022-10-16T07:57:10;9.50;;;3.20;;
5458;SDS011;2752;49.992;8.422;2022-10-16T07:59:43;5.10;;;3.43;;
5458;SDS011;2752;49.992;8.422;2022-10-16T08:02:12;10.83;;;3.60;;
5458;SDS011;2752;49.992;8.422;2022-10-16T08:04:39;5.10;;;3.27;;
5458;SDS011;2752;49.992;8.422;2022-10-16T08:07:06;6.03;;;3.47;;
5458;SDS011;2752;49.992;8.422;2022-10-16T08:09:34;7.00;;;3.97;;
5458;SDS011;2752;49.992;8.422;2022-10-16T08:12:01;6.10;;;3.40;;
5458;SDS011;2752;49.992;8.422;2022-10-16T08:14:29;5.63;;;3.03;;
5458;SDS011;2752;49.992;8.422;2022-10-16T08:16:56;6.53;;;3.60;;
5458;SDS011;2752;49.992;8.422;2022-10-16T08:19:24;4.97;;;3.27;;
5458;SDS011;2752;49.992;8.422;2022-10-16T08:21:51;4.40;;;3.07;;
5458;SDS011;2752;49.992;8.422;2022-10-16T08:24:18;8.30;;;2.80;;
5458;SDS011;2752;49.992;8.422;2022-10-16T08:26:45;4.73;;;2.50;;
5458;SDS011;2752;49.992;8.422;2022-10-16T08:29:13;3.00;;;2.27;;
5458;SDS011;2752;49.992;8.422;2022-10-16T08:31:40;5.27;;;2.53;;
5458;SDS011;2752;49.992;8.422;2022-10-16T08:34:07;3.90;;;2.27;;
5458;SDS011;2752;49.992;8.422;2022-10-16T08:36:35;3.57;;;2.10;;
5458;SDS011;2752;49.992;8.422;2022-10-16T08:39:03;6.30;;;4.70;;
5458;SDS011;2752;49.992;8.422;2022-10-16T08:41:34;8.27;;;4.90;;
5458;SDS011;2752;49.992;8.422;2022-10-16T08:44:28;10.17;;;2.73;;
5458;SDS011;2752;49.992;8.422;2022-10-16T08:46:59;6.50;;;3.27;;
5458;SDS011;2752;49.992;8.422;2022-10-16T08:49:27;4.90;;;2.30;;
5458;SDS011;2752;49.992;8.422;2022-10-16T08:51:57;3.00;;;2.17;;
5458;SDS011;2752;49.992;8.422;2022-10-16T08:54:26;2.90;;;1.83;;
5458;SDS011;2752;49.992;8.422;2022-10-16T08:56:54;2.87;;;2.50;;
5458;SDS011;2752;49.992;8.422;2022-10-16T08:59:22;4.73;;;2.50;;
5458;SDS011;2752;49.992;8.422;2022-10-16T09:01:49;3.57;;;2.40;;
5458;SDS011;2752;49.992;8.422;2022-10-16T09:04:36;6.00;;;2.77;;
5458;SDS011;2752;49.992;8.422;2022-10-16T09:07:12;3.23;;;2.47;;
5458;SDS011;2752;49.992;8.422;2022-10-16T09:09:49;5.80;;;2.80;;
5458;SDS011;2752;49.992;8.422;2022-10-16T09:12:20;6.33;;;2.60;;
5458;SDS011;2752;49.992;8.422;2022-10-16T09:14:54;6.80;;;2.10;;
5458;SDS011;2752;49.992;8.422;2022-10-16T09:17:27;2.40;;;2.00;;
5458;SDS011;2752;49.992;8.422;2022-10-16T09:19:59;8.10;;;2.87;;
5458;SDS011;2752;49.992;8.422;2022-10-16T09:22:31;6.37;;;3.10;;
5458;SDS011;2752;49.992;8.422;2022-10-16T09:24:59;7.20;;;3.33;;
5458;SDS011;2752;49.992;8.422;2022-10-16T09:27:27;5.30;;;2.70;;
5458;SDS011;2752;49.992;8.422;2022-10-16T09:29:55;4.70;;;2.30;;
5458;SDS011;2752;49.992;8.422;2022-10-16T09:32:22;3.20;;;2.13;;
5458;SDS011;2752;49.992;8.422;2022-10-16T09:34:49;4.40;;;2.17;;
5458;SDS011;2752;49.992;8.422;2022-10-16T09:37:18;5.60;;;2.77;;
5458;SDS011;2752;49.992;8.422;2022-10-16T09:39:47;6.57;;;2.50;;
5458;SDS011;2752;49.992;8.422;2022-10-16T09:42:16;6.40;;;3.23;;
5458;SDS011;2752;49.992;8.422;2022-10-16T09:44:46;6.70;;;3.50;;
5458;SDS011;2752;49.992;8.422;2022-10-16T09:47:14;4.53;;;2.70;;
5458;SDS011;2752;49.992;8.422;2022-10-16T09:49:50;11.70;;;3.00;;
5458;SDS011;2752;49.992;8.422;2022-10-16T09:52:18;4.57;;;2.73;;
5458;SDS011;2752;49.992;8.422;2022-10-16T09:54:50;5.67;;;2.90;;
5458;SDS011;2752;49.992;8.422;2022-10-16T09:57:17;5.67;;;2.30;;
5458;SDS011;2752;49.992;8.422;2022-10-16T09:59:46;5.10;;;2.90;;
5458;SDS011;2752;49.992;8.422;2022-10-16T10:02:13;5.73;;;2.90;;
5458;SDS011;2752;49.992;8.422;2022-10-16T10:04:42;8.10;;;4.73;;
5458;SDS011;2752;49.992;8.422;2022-10-16T10:07:16;8.00;;;5.30;;
5458;SDS011;2752;49.992;8.422;2022-10-16T10:09:44;12.70;;;4.70;;
5458;SDS011;2752;49.992;8.422;2022-10-16T10:12:20;9.63;;;3.70;;
5458;SDS011;2752;49.992;8.422;2022-10-16T10:14:48;11.90;;;3.87;;
5458;SDS011;2752;49.992;8.422;2022-10-16T10:17:17;7.20;;;3.23;;
5458;SDS011;2752;49.992;8.422;2022-10-16T10:19:53;4.60;;;3.17;;
5458;SDS011;2752;49.992;8.422;2022-10-16T10:22:25;3.57;;;2.40;;
5458;SDS011;2752;49.992;8.422;2022-10-16T10:27:41;4.00;;;1.93;;
5458;SDS011;2752;49.992;8.422;2022-10-16T10:30:14;6.33;;;2.30;;
5458;SDS011;2752;49.992;8.422;2022-10-16T10:32:45;2.20;;;1.63;;
5458;SDS011;2752;49.992;8.422;2022-10-16T10:35:14;6.57;;;2.13;;
5458;SDS011;2752;49.992;8.422;2022-10-16T10:37:47;4.23;;;2.33;;
5458;SDS011;2752;49.992;8.422;2022-10-16T10:40:22;7.83;;;2.20;;
5458;SDS011;2752;49.992;8.422;2022-10-16T10:42:53;5.40;;;2.40;;
5458;SDS011;2752;49.992;8.422;2022-10-16T10:45:25;4.20;;;2.40;;
5458;SDS011;2752;49.992;8.422;2022-10-16T10:47:56;2.70;;;2.10;;
5458;SDS011;2752;49.992;8.422;2022-10-16T10:50:26;5.60;;;2.60;;
5458;SDS011;2752;49.992;8.422;2022-10-16T10:52:58;3.30;;;2.40;;
5458;SDS011;2752;49.992;8.422;2022-10-16T10:55:29;3.27;;;2.70;;
5458;SDS011;2752;49.992;8.422;2022-10-16T10:58:04;7.43;;;3.40;;
5458;SDS011;2752;49.992;8.422;2022-10-16T11:00:33;4.00;;;2.50;;
5458;SDS011;2752;49.992;8.422;2022-10-16T11:03:12;4.23;;;3.03;;
5458;SDS011;2752;49.992;8.422;2022-10-16T11:05:51;4.97;;;3.20;;
5458;SDS011;2752;49.992;8.422;2022-10-16T11:08:23;7.03;;;2.53;;
5458;SDS011;2752;49.992;8.422;2022-10-16T11:10:57;5.60;;;2.03;;
5458;SDS011;2752;49.992;8.422;2022-10-16T11:13:30;5.70;;;2.30;;
5458;SDS011;2752;49.992;8.422;2022-10-16T11:16:03;5.33;;;2.20;;
5458;SDS011;2752;49.992;8.422;2022-10-16T11:18:42;7.17;;;3.00;;
5458;SDS011;2752;49.992;8.422;2022-10-16T11:21:16;14.67;;;2.40;;
5458;SDS011;2752;49.992;8.422;2022-10-16T11:23:46;5.50;;;3.13;;
5458;SDS011;2752;49.992;8.422;2022-10-16T11:26:20;9.03;;;2.67;;
5458;SDS011;2752;49.992;8.422;2022-10-16T11:28:53;3.90;;;2.30;;
5458;SDS011;2752;49.992;8.422;2022-10-16T11:31:23;7.47;;;2.10;;
5458;SDS011;2752;49.992;8.422;2022-10-16T11:33:57;4.00;;;2.13;;
5458;SDS011;2752;49.992;8.422;2022-10-16T11:36:31;6.43;;;2.57;;
5458;SDS011;2752;49.992;8.422;2022-10-16T11:39:03;10.33;;;2.17;;
5458;SDS011;2752;49.992;8.422;2022-10-16T11:41:39;2.33;;;1.97;;
5458;SDS011;2752;49.992;8.422;2022-10-16T11:44:18;3.07;;;2.40;;
5458;SDS011;2752;49.992;8.422;2022-10-16T11:46:58;4.20;;;2.27;;
5458;SDS011;2752;49.992;8.422;2022-10-16T11:49:31;3.60;;;1.77;;
5458;SDS011;2752;49.992;8.422;2022-10-16T11:52:00;1.60;;;1.50;;
5458;SDS011;2752;49.992;8.422;2022-10-16T11:54:35;2.17;;;1.67;;
5458;SDS011;2752;49.992;8.422;2022-10-16T11:57:08;4.40;;;1.90;;
5458;SDS011;2752;49.992;8.422;2022-10-16T11:59:42;5.80;;;2.23;;
5458;SDS011;2752;49.992;8.422;2022-10-16T12:02:22;5.07;;;1.80;;
5458;SDS011;2752;49.992;8.422;2022-10-16T12:05:02;4.10;;;1.80;;
5458;SDS011;2752;49.992;8.422;2022-10-16T12:07:38;3.57;;;1.87;;
5458;SDS011;2752;49.992;8.422;2022-10-16T12:10:10;4.70;;;1.30;;
5458;SDS011;2752;49.992;8.422;2022-10-16T12:12:48;1.63;;;1.40;;
5458;SDS011;2752;49.992;8.422;2022-10-16T12:15:19;1.60;;;1.40;;
5458;SDS011;2752;49.992;8.422;2022-10-16T12:17:52;2.27;;;1.10;;
5458;SDS011;2752;49.992;8.422;2022-10-16T12:20:24;6.40;;;1.30;;
5458;SDS011;2752;49.992;8.422;2022-10-16T12:22:53;4.93;;;0.90;;
5458;SDS011;2752;49.992;8.422;2022-10-16T12:25:23;1.10;;;1.00;;
5458;SDS011;2752;49.992;8.422;2022-10-16T12:27:56;2.70;;;1.10;;
5458;SDS011;2752;49.992;8.422;2022-10-16T12:30:30;3.00;;;2.00;;
5458;SDS011;2752;49.992;8.422;2022-10-16T12:32:59;2.77;;;1.70;;
5458;SDS011;2752;49.992;8.422;2022-10-16T12:35:29;1.43;;;1.10;;
5458;SDS011;2752;49.992;8.422;2022-10-16T12:38:05;3.17;;;1.20;;
5458;SDS011;2752;49.992;8.422;2022-10-16T12:40:34;2.57;;;1.13;;
5458;SDS011;2752;49.992;8.422;2022-10-16T12:43:13;2.80;;;1.40;;
5458;SDS011;2752;49.992;8.422;2022-10-16T12:46:00;2.30;;;1.17;;
5458;SDS011;2752;49.992;8.422;2022-10-16T12:48:29;2.60;;;2.00;;
5458;SDS011;2752;49.992;8.422;2022-10-16T12:50:56;4.43;;;2.50;;
5458;SDS011;2752;49.992;8.422;2022-10-16T12:53:23;3.20;;;2.07;;
5458;SDS011;2752;49.992;8.422;2022-10-16T12:55:56;2.60;;;1.70;;
5458;SDS011;2752;49.992;8.422;2022-10-16T12:58:36;3.33;;;1.60;;
5458;SDS011;2752;49.992;8.422;2022-10-16T13:01:21;3.77;;;1.40;;
5458;SDS011;2752;49.992;8.422;2022-10-16T13:04:03;1.37;;;1.27;;
5458;SDS011;2752;49.992;8.422;2022-10-16T13:06:55;3.60;;;1.67;;
5458;SDS011;2752;49.992;8.422;2022-10-16T13:09:32;3.53;;;1.40;;
5458;SDS011;2752;49.992;8.422;2022-10-16T13:12:15;1.97;;;1.37;;
5458;SDS011;2752;49.992;8.422;2022-10-16T13:14:57;3.97;;;1.47;;
5458;SDS011;2752;49.992;8.422;2022-10-16T13:17:40;4.10;;;1.60;;
5458;SDS011;2752;49.992;8.422;2022-10-16T13:20:16;9.67;;;5.40;;
5458;SDS011;2752;49.992;8.422;2022-10-16T13:22:51;2.70;;;1.30;;
5458;SDS011;2752;49.992;8.422;2022-10-16T13:25:28;5.47;;;1.60;;
5458;SDS011;2752;49.992;8.422;2022-10-16T13:28:03;1.70;;;1.40;;
5458;SDS011;2752;49.992;8.422;2022-10-16T13:30:31;6.80;;;1.57;;
5458;SDS011;2752;49.992;8.422;2022-10-16T13:33:04;3.67;;;2.00;;
5458;SDS011;2752;49.992;8.422;2022-10-16T13:35:46;2.80;;;1.60;;
5458;SDS011;2752;49.992;8.422;2022-10-16T13:38:15;4.93;;;2.47;;
5458;SDS011;2752;49.992;8.422;2022-10-16T13:40:50;8.97;;;2.40;;
5458;SDS011;2752;49.992;8.422;2022-10-16T13:43:18;8.00;;;2.80;;
5458;SDS011;2752;49.992;8.422;2022-10-16T13:45:58;9.10;;;3.30;;
5458;SDS011;2752;49.992;8.422;2022-10-16T13:48:28;8.27;;;2.60;;
5458;SDS011;2752;49.992;8.422;2022-10-16T13:50:59;4.67;;;1.83;;
5458;SDS011;2752;49.992;8.422;2022-10-16T13:53:26;1.93;;;1.40;;
5458;SDS011;2752;49.992;8.422;2022-10-16T13:55:55;3.63;;;1.87;;
5458;SDS011;2752;49.992;8.422;2022-10-16T13:58:22;4.07;;;2.10;;
5458;SDS011;2752;49.992;8.422;2022-10-16T14:00:56;3.73;;;1.70;;
5458;SDS011;2752;49.992;8.422;2022-10-16T14:03:24;1.70;;;1.43;;
5458;SDS011;2752;49.992;8.422;2022-10-16T14:05:54;4.70;;;1.80;;
5458;SDS011;2752;49.992;8.422;2022-10-16T14:08:23;6.13;;;1.93;;
5458;SDS011;2752;49.992;8.422;2022-10-16T14:10:52;4.20;;;1.90;;
5458;SDS011;2752;49.992;8.422;2022-10-16T14:13:23;2.80;;;1.93;;
5458;SDS011;2752;49.992;8.422;2022-10-16T14:15:56;7.07;;;2.20;;
5458;SDS011;2752;49.992;8.422;2022-10-16T14:18:26;2.40;;;1.73;;
5458;SDS011;2752;49.992;8.422;2022-10-16T14:21:02;8.23;;;2.20;;
5458;SDS011;2752;49.992;8.422;2022-10-16T14:23:30;4.30;;;1.93;;
5458;SDS011;2752;49.992;8.422;2022-10-16T14:26:11;8.63;;;4.77;;
5458;SDS011;2752;49.992;8.422;2022-10-16T14:28:39;3.93;;;2.40;;
5458;SDS011;2752;49.992;8.422;2022-10-16T14:31:19;3.50;;;2.57;;
5458;SDS011;2752;49.992;8.422;2022-10-16T14:33:51;2.90;;;2.03;;
5458;SDS011;2752;49.992;8.422;2022-10-16T14:36:19;3.00;;;1.90;;
5458;SDS011;2752;49.992;8.422;2022-10-16T14:38:48;4.60;;;2.77;;
5458;SDS011;2752;49.992;8.422;2022-10-16T14:41:23;6.80;;;3.23;;
5458;SDS011;2752;49.992;8.422;2022-10-16T14:43:50;9.93;;;4.70;;
5458;SDS011;2752;49.992;8.422;2022-10-16T14:46:19;11.13;;;4.30;;
5458;SDS011;2752;49.992;8.422;2022-10-16T14:48:51;6.53;;;3.17;;
5458;SDS011;2752;49.992;8.422;2022-10-16T14:51:25;14.27;;;4.37;;
5458;SDS011;2752;49.992;8.422;2022-10-16T14:53:52;4.00;;;2.30;;
5458;SDS011;2752;49.992;8.422;2022-10-16T14:56:20;5.57;;;3.00;;
5458;SDS011;2752;49.992;8.422;2022-10-16T14:58:48;4.00;;;2.90;;
5458;SDS011;2752;49.992;8.422;2022-10-16T15:01:17;4.77;;;2.10;;
5458;SDS011;2752;49.992;8.422;2022-10-16T15:03:44;4.23;;;2.07;;
5458;SDS011;2752;49.992;8.422;2022-10-16T15:06:11;1.77;;;1.47;;
5458;SDS011;2752;49.992;8.422;2022-10-16T15:08:40;3.07;;;2.00;;
5458;SDS011;2752;49.992;8.422;2022-10-16T15:11:08;7.40;;;1.80;;
5458;SDS011;2752;49.992;8.422;2022-10-16T15:13:38;4.63;;;1.93;;
5458;SDS011;2752;49.992;8.422;2022-10-16T15:16:07;6.93;;;2.83;;
5458;SDS011;2752;49.992;8.422;2022-10-16T15:18:36;5.93;;;2.63;;
5458;SDS011;2752;49.992;8.422;2022-10-16T15:21:03;2.97;;;1.87;;
5458;SDS011;2752;49.992;8.422;2022-10-16T15:23:30;3.53;;;2.00;;
5458;SDS011;2752;49.992;8.422;2022-10-16T15:25:58;5.23;;;2.27;;
5458;SDS011;2752;49.992;8.422;2022-10-16T15:28:25;5.00;;;2.63;;
5458;SDS011;2752;49.992;8.422;2022-10-16T15:30:52;6.67;;;2.00;;
5458;SDS011;2752;49.992;8.422;2022-10-16T15:33:22;3.70;;;2.00;;
5458;SDS011;2752;49.992;8.422;2022-10-16T15:35:52;4.30;;;2.13;;